Delray Beach, FL

2:17 PM EDT on August 20, 2014 (GMT -0400)
Lake Ida | Change Station
CLOSE
Current Station
Personal Weather Station
Location: Delray Beach, FL
Elevation: 10 ft
Nearby Weather Stations

Elev 10 ft 26.47 °N, 80.08 °W | Updated 6 seconds ago

Scattered Clouds
Scattered Clouds
93.2 °F
Feels Like 110 °F
N
1.0
Wind Variable Wind from NE
Gusts 6.0 mph

Today
High -- | Low -- °F
--% Chance of Precip.
Yesterday
High -- | Low -- °F
Precip. -- in
6:54 AM 7:52 PM
Waning Crescent, 20% visible
Pressure 30.07 in
Visibility 10.0 miles
Clouds Few 3600 ft
Scattered Clouds 25000 ft
Heat Index 110 °F
Dew Point 79 °F
Humidity 63%
Rainfall 0.00 in
Snow Depth Not available.
UV 12 out of 12
Pollen 4.90 out of 12
Air Quality Not available.
Flu Activity Not available.
METAR KPMP 201753Z 08007KT 10SM FEW036 SCT250 33/23 A3007 RMK AO2 LTG DSNT S AND SW SLP182 T03330233 10333 20289 58009 $

More Conditions Fewer Conditions

Pressure 30.07 in
Visibility 10.0 miles
Clouds Few 3600 ft
Scattered Clouds 25000 ft
Heat Index 110 °F
Dew Point 79 °F
Humidity 63%
Rainfall 0.00 in
Snow Depth Not available.
UV 12 out of 12
Pollen 4.90 out of 12
Air Quality Not available.
Flu Activity Not available.
METAR KPMP 201753Z 08007KT 10SM FEW036 SCT250 33/23 A3007 RMK AO2 LTG DSNT S AND SW SLP182 T03330233 10333 20289 58009 $

More Conditions Fewer Conditions

Nowcast | as of 2:04 PM EDT on August 20, 2014

Showers and thunderstorms will continue to develop and move southwest over inland sections of Metro Southeast Florida and The Everglades. Initial showers and thunderstorms from doral to Kendall and Homestead will move southwest, with additional showers and thunderstorms affecting the rest of the western suburbs of Southeast Florida. Occasional to frequent lightning strikes, torrential downpours and gusty winds can be expected through mid afternoon.

×

10-Day Weather Forecast

Almanac

Astronomy

Aug. 20, 2014 Rise Set
Actual Time 6:54 AM EDT 7:52 PM EDT
Civil Twilight 6:30 AM EDT 8:16 PM EDT
Nautical Twilight 6:02 AM EDT 8:44 PM EDT
Astronomical Twilight 5:33 AM EDT 9:13 PM EDT
Moon 2:43 AM EDT 4:26 PM EDT
Length of Visible Light 13h 45m
Length of Day
12h 57m
Tomorrow will be 1m 24s shorter.
Waning Crescent, 20% of the Moon is Illuminated
Today
Waning Crescent
Aug 25
New
Sep 2
First Quarter
Sep 8
Full
Sep 15
Last Quarter

Today's Extremes

State Highs State Lows

Community

WunderPhotos

Upload Photos

1,745,703 photos uploaded!

WunderBlogs® & News

Nearby

Air Quality

  Air Quality AQ Index Pollutant
Yesterday Good
OZONE
Wednesday Moderate
PM2.5
Wednesday Good
OZONE
Thursday Good
OZONE
Thursday Good
PM2.5

Snow Depth

Station Depth Elevation
No new snow has been reported.

Earthquake Activity

City Distance Mag. Time & Date
No recent earthquake activity has been reported nearby.
Minimum magnitude displayed is 2.5.

Coastal Water Temperatures

Place Temperature
Lake Worth, FL 87.1 °F
Virginia Key, FL 89.1 °F

Nearby Weather Stations